Time;durP1;ratioP1;P1;durP2;ratioP2;P2;SDS_P1;SDS_P2;PMS_P1;PMS_P2;Temp;Humidity;BMP_temperature;BMP_pressure;BME280_temperature;BME280_humidity;BME280_pressure;Samples;Min_cycle;Max_cycle;Signal;HPM_P1;HPM_P2
2023/07/25 00:01:14;;;;;;;7.07;3.27;;;;;;;;;;5016177;28;20539;-72
2023/07/25 00:03:40;;;;;;;6.20;3.03;;;;;;;;;;5015924;28;20195;-71
2023/07/25 00:06:06;;;;;;;7.97;3.70;;;;;;;;;;4997296;28;20190;-72
2023/07/25 00:08:32;;;;;;;16.87;4.23;;;;;;;;;;4997725;28;20184;-70
2023/07/25 00:10:58;;;;;;;5.73;3.37;;;;;;;;;;4996924;28;20176;-70
2023/07/25 00:13:24;;;;;;;6.77;3.73;;;;;;;;;;5014467;28;20207;-70
2023/07/25 00:15:50;;;;;;;8.60;3.67;;;;;;;;;;5014535;28;20203;-71
2023/07/25 00:18:16;;;;;;;8.50;4.23;;;;;;;;;;4996847;28;20183;-71
2023/07/25 00:20:42;;;;;;;7.87;3.83;;;;;;;;;;5014361;28;20801;-71
2023/07/25 00:23:08;;;;;;;6.87;3.70;;;;;;;;;;5016843;28;20269;-70
2023/07/25 00:25:34;;;;;;;6.77;3.93;;;;;;;;;;5014818;28;20629;-71
2023/07/25 00:28:00;;;;;;;9.60;3.93;;;;;;;;;;5015010;28;20172;-73
2023/07/25 00:30:26;;;;;;;9.50;3.40;;;;;;;;;;4996826;28;20684;-71
2023/07/25 00:32:52;;;;;;;5.83;3.47;;;;;;;;;;5014431;28;20176;-71
2023/07/25 00:35:18;;;;;;;5.80;3.40;;;;;;;;;;4996661;28;20198;-71
2023/07/25 00:37:44;;;;;;;9.17;3.90;;;;;;;;;;5014091;28;20183;-72
2023/07/25 00:40:10;;;;;;;5.43;3.63;;;;;;;;;;4996927;28;20184;-72
2023/07/25 00:42:36;;;;;;;7.70;3.20;;;;;;;;;;4996325;28;20250;-69
2023/07/25 00:45:02;;;;;;;8.03;3.87;;;;;;;;;;5013643;28;20227;-72
2023/07/25 00:47:28;;;;;;;7.30;3.40;;;;;;;;;;4996216;28;20176;-72
2023/07/25 00:49:55;;;;;;;8.40;3.07;;;;;;;;;;4996058;28;20191;-71
2023/07/25 00:52:21;;;;;;;4.83;3.37;;;;;;;;;;5013924;28;20176;-71
2023/07/25 00:54:48;;;;;;;8.80;3.37;;;;;;;;;;4996231;28;20210;-71
2023/07/25 00:57:15;;;;;;;7.70;3.57;;;;;;;;;;5013938;28;20214;-71
2023/07/25 00:59:41;;;;;;;7.83;3.43;;;;;;;;;;4997535;28;20649;-72
2023/07/25 01:02:08;;;;;;;7.03;3.40;;;;;;;;;;4999396;28;20204;-71
2023/07/25 01:04:33;;;;;;;6.73;3.00;;;;;;;;;;4996123;28;20616;-71
2023/07/25 01:07:00;;;;;;;9.20;3.43;;;;;;;;;;5014709;28;20271;-71
2023/07/25 01:09:35;;;;;;;9.03;3.83;;;;;;;;;;4996995;28;20188;-71
2023/07/25 01:12:01;;;;;;;7.03;2.97;;;;;;;;;;5013890;28;20251;-70
2023/07/25 01:14:27;;;;;;;9.40;3.17;;;;;;;;;;4996518;28;20200;-72
2023/07/25 01:16:54;;;;;;;12.57;3.23;;;;;;;;;;5014445;28;20557;-72
2023/07/25 01:19:21;;;;;;;7.40;3.30;;;;;;;;;;4996323;28;20325;-70
2023/07/25 01:21:47;;;;;;;10.77;3.67;;;;;;;;;;5017450;28;20207;-72
2023/07/25 01:24:13;;;;;;;5.93;3.40;;;;;;;;;;5017609;28;20233;-72
2023/07/25 01:26:39;;;;;;;7.37;3.03;;;;;;;;;;5017478;28;20179;-72
2023/07/25 01:29:05;;;;;;;7.47;3.20;;;;;;;;;;5000066;28;20183;-72
2023/07/25 01:31:31;;;;;;;9.73;3.30;;;;;;;;;;5000068;28;20207;-72
2023/07/25 01:33:56;;;;;;;11.20;3.67;;;;;;;;;;5016861;28;20269;-72
2023/07/25 01:36:22;;;;;;;6.60;3.67;;;;;;;;;;5000075;28;20757;-72
2023/07/25 01:38:48;;;;;;;11.43;3.80;;;;;;;;;;5000769;28;20184;-73
2023/07/25 01:41:14;;;;;;;11.83;3.40;;;;;;;;;;5017147;28;20214;-72
2023/07/25 01:43:40;;;;;;;9.73;3.53;;;;;;;;;;4999887;28;20202;-71
2023/07/25 01:46:06;;;;;;;9.90;3.70;;;;;;;;;;5017322;28;20183;-72
2023/07/25 01:48:32;;;;;;;8.30;3.27;;;;;;;;;;4999663;28;20195;-71
2023/07/25 01:50:58;;;;;;;10.63;4.03;;;;;;;;;;4999619;28;20172;-71
2023/07/25 01:53:24;;;;;;;10.50;3.50;;;;;;;;;;5019607;28;20197;-72
2023/07/25 01:55:50;;;;;;;6.67;3.80;;;;;;;;;;5000002;28;20195;-71
2023/07/25 01:58:16;;;;;;;9.83;3.57;;;;;;;;;;5016702;28;20291;-71
2023/07/25 02:00:42;;;;;;;7.30;4.37;;;;;;;;;;5016400;28;20201;-71
2023/07/25 02:03:09;;;;;;;7.70;4.30;;;;;;;;;;5017148;28;20212;-71
2023/07/25 02:05:35;;;;;;;11.57;4.23;;;;;;;;;;5000101;28;20176;-73
2023/07/25 02:08:01;;;;;;;11.67;4.63;;;;;;;;;;5018495;28;20186;-72
2023/07/25 02:10:29;;;;;;;12.10;4.97;;;;;;;;;;5000002;28;20271;-71
2023/07/25 02:12:56;;;;;;;10.23;4.97;;;;;;;;;;5017686;28;20187;-71
2023/07/25 02:15:22;;;;;;;8.50;4.63;;;;;;;;;;4999592;28;20229;-72
2023/07/25 02:17:49;;;;;;;11.00;4.37;;;;;;;;;;5018244;28;20183;-72
2023/07/25 02:20:15;;;;;;;7.47;4.37;;;;;;;;;;5017680;28;20168;-74
2023/07/25 02:22:40;;;;;;;7.43;4.77;;;;;;;;;;5018458;28;20210;-73
2023/07/25 02:25:07;;;;;;;7.40;4.67;;;;;;;;;;5017335;28;20688;-71
2023/07/25 02:27:33;;;;;;;12.53;5.30;;;;;;;;;;5001777;28;20190;-73
2023/07/25 02:29:59;;;;;;;10.30;5.50;;;;;;;;;;4999355;28;20172;-73
2023/07/25 02:32:25;;;;;;;10.10;5.03;;;;;;;;;;4998147;28;20219;-71
2023/07/25 02:34:50;;;;;;;10.70;5.30;;;;;;;;;;5000336;28;20223;-72
2023/07/25 02:37:16;;;;;;;14.77;5.70;;;;;;;;;;5017674;28;20187;-72
2023/07/25 02:39:42;;;;;;;7.83;5.37;;;;;;;;;;5016502;28;20276;-72
2023/07/25 02:42:08;;;;;;;8.20;5.37;;;;;;;;;;5042511;22;20241;-64
2023/07/25 02:44:34;;;;;;;9.53;5.20;;;;;;;;;;5055415;28;20231;-64
2023/07/25 02:47:00;;;;;;;9.70;5.17;;;;;;;;;;5054981;28;20171;-64
2023/07/25 02:49:26;;;;;;;11.03;5.23;;;;;;;;;;5037176;28;20682;-64
2023/07/25 02:51:52;;;;;;;12.10;6.13;;;;;;;;;;5037037;28;20199;-64
2023/07/25 02:54:18;;;;;;;13.60;6.47;;;;;;;;;;5055042;28;20184;-64
2023/07/25 02:56:44;;;;;;;13.47;6.03;;;;;;;;;;5054961;28;20182;-64
2023/07/25 02:59:10;;;;;;;11.27;6.40;;;;;;;;;;5054913;28;20214;-64
2023/07/25 03:01:36;;;;;;;12.53;6.67;;;;;;;;;;5036720;28;20261;-64
2023/07/25 03:04:02;;;;;;;10.17;6.43;;;;;;;;;;5054659;28;20190;-65
2023/07/25 03:06:28;;;;;;;14.20;6.50;;;;;;;;;;5055145;28;20204;-64
2023/07/25 03:08:54;;;;;;;10.60;7.10;;;;;;;;;;5056059;28;20174;-64
2023/07/25 03:11:20;;;;;;;11.27;6.20;;;;;;;;;;5036608;28;20228;-67
2023/07/25 03:13:46;;;;;;;15.53;6.70;;;;;;;;;;5054651;28;20210;-65
2023/07/25 03:16:12;;;;;;;12.00;6.67;;;;;;;;;;5055078;28;20576;-63
2023/07/25 03:18:38;;;;;;;14.60;6.47;;;;;;;;;;5055187;28;20178;-65
2023/07/25 03:21:04;;;;;;;10.67;6.60;;;;;;;;;;5055279;28;20265;-65
2023/07/25 03:23:30;;;;;;;12.80;6.60;;;;;;;;;;5054752;28;20225;-65
2023/07/25 03:25:56;;;;;;;10.13;6.40;;;;;;;;;;5054875;28;20250;-64
2023/07/25 03:28:22;;;;;;;14.50;5.90;;;;;;;;;;5054619;28;20258;-65
2023/07/25 03:30:48;;;;;;;14.07;6.57;;;;;;;;;;5036383;28;20186;-65
2023/07/25 03:33:14;;;;;;;11.47;6.10;;;;;;;;;;5054476;28;20195;-65
2023/07/25 03:35:41;;;;;;;9.30;6.33;;;;;;;;;;5054267;28;20662;-65
2023/07/25 03:38:07;;;;;;;17.13;7.43;;;;;;;;;;5054066;28;20175;-65
2023/07/25 03:40:33;;;;;;;11.17;7.80;;;;;;;;;;5054024;28;20179;-65
2023/07/25 03:42:59;;;;;;;13.33;7.10;;;;;;;;;;5036103;28;20214;-65
2023/07/25 03:45:25;;;;;;;18.07;7.13;;;;;;;;;;5036318;28;20265;-65
2023/07/25 03:47:51;;;;;;;12.07;6.80;;;;;;;;;;5035983;28;20621;-65
2023/07/25 03:50:17;;;;;;;19.13;7.67;;;;;;;;;;5054149;28;20232;-65
2023/07/25 03:52:43;;;;;;;12.60;7.43;;;;;;;;;;5053845;28;20688;-65
2023/07/25 03:55:09;;;;;;;11.97;6.70;;;;;;;;;;5053996;28;20532;-65
2023/07/25 03:57:35;;;;;;;12.63;7.33;;;;;;;;;;5053775;28;20210;-65
2023/07/25 04:00:01;;;;;;;13.40;7.20;;;;;;;;;;5054525;28;20181;-65
2023/07/25 04:02:27;;;;;;;13.57;7.00;;;;;;;;;;5053542;28;20218;-64
2023/07/25 04:04:53;;;;;;;12.70;7.93;;;;;;;;;;5054055;28;20553;-65
2023/07/25 04:07:19;;;;;;;16.63;7.40;;;;;;;;;;5054196;28;20174;-64
2023/07/25 04:09:45;;;;;;;12.13;7.23;;;;;;;;;;5053698;28;20197;-64
2023/07/25 04:12:11;;;;;;;10.47;7.03;;;;;;;;;;5035642;28;20606;-64
2023/07/25 04:14:37;;;;;;;11.80;6.93;;;;;;;;;;5053532;28;20186;-64
2023/07/25 04:17:03;;;;;;;11.13;6.70;;;;;;;;;;5053496;28;20217;-64
2023/07/25 04:19:28;;;;;;;15.10;8.03;;;;;;;;;;5053968;28;20186;-64
2023/07/25 04:21:54;;;;;;;12.50;6.33;;;;;;;;;;5054499;28;20250;-64
2023/07/25 04:24:20;;;;;;;11.07;6.93;;;;;;;;;;5054125;28;20174;-64
2023/07/25 04:26:46;;;;;;;14.13;7.40;;;;;;;;;;5053852;28;20603;-65
2023/07/25 04:29:12;;;;;;;9.40;6.83;;;;;;;;;;5053312;28;20175;-64
2023/07/25 04:31:38;;;;;;;19.03;7.10;;;;;;;;;;5053099;28;20197;-64
2023/07/25 04:34:05;;;;;;;12.30;7.33;;;;;;;;;;5053438;28;20293;-65
2023/07/25 04:36:31;;;;;;;11.47;7.00;;;;;;;;;;5053126;28;20186;-65
2023/07/25 04:38:57;;;;;;;16.30;7.47;;;;;;;;;;5053204;28;20183;-64
2023/07/25 04:41:23;;;;;;;17.13;7.23;;;;;;;;;;5053357;28;20300;-64
2023/07/25 04:43:49;;;;;;;12.47;7.33;;;;;;;;;;5035165;28;20198;-65
2023/07/25 04:46:15;;;;;;;18.60;7.20;;;;;;;;;;5053711;28;20177;-65
2023/07/25 04:48:41;;;;;;;12.10;6.83;;;;;;;;;;5053370;28;20206;-65
2023/07/25 04:51:07;;;;;;;11.70;6.93;;;;;;;;;;5053199;28;20209;-62
2023/07/25 04:53:34;;;;;;;11.33;6.73;;;;;;;;;;5054107;28;20730;-62
2023/07/25 04:56:00;;;;;;;11.40;7.33;;;;;;;;;;5039407;28;20186;-62
2023/07/25 04:58:26;;;;;;;11.87;7.13;;;;;;;;;;5039364;28;20185;-62
2023/07/25 05:00:52;;;;;;;16.70;7.20;;;;;;;;;;5057314;28;20182;-62
2023/07/25 05:03:18;;;;;;;16.97;7.17;;;;;;;;;;5056888;28;20611;-64
2023/07/25 05:05:44;;;;;;;13.00;7.33;;;;;;;;;;5057078;28;20181;-63
2023/07/25 05:08:10;;;;;;;11.03;7.00;;;;;;;;;;5057611;28;20589;-62
2023/07/25 05:10:36;;;;;;;15.17;6.93;;;;;;;;;;5057206;28;20206;-62
2023/07/25 05:13:02;;;;;;;10.07;6.00;;;;;;;;;;5056697;28;20202;-63
2023/07/25 05:15:28;;;;;;;7.33;5.73;;;;;;;;;;5056723;28;20228;-64
2023/07/25 05:17:54;;;;;;;18.17;6.10;;;;;;;;;;5056633;28;20179;-63
2023/07/25 05:20:20;;;;;;;9.53;5.53;;;;;;;;;;5056532;28;20189;-64
2023/07/25 05:22:46;;;;;;;11.20;5.27;;;;;;;;;;5056540;28;20293;-63
2023/07/25 05:25:12;;;;;;;11.57;4.90;;;;;;;;;;5038627;28;20178;-64
2023/07/25 05:27:37;;;;;;;7.63;4.10;;;;;;;;;;5038573;28;20186;-64
2023/07/25 05:30:04;;;;;;;9.83;4.40;;;;;;;;;;5056340;28;20240;-64
2023/07/25 05:32:30;;;;;;;10.93;4.50;;;;;;;;;;5056215;28;20198;-64
2023/07/25 05:34:55;;;;;;;7.47;4.47;;;;;;;;;;5038397;28;20186;-64
2023/07/25 05:37:22;;;;;;;8.80;4.40;;;;;;;;;;5056512;28;20175;-64
2023/07/25 05:39:51;;;;;;;7.50;4.33;;;;;;;;;;5038420;28;20188;-64
2023/07/25 05:42:17;;;;;;;11.47;3.93;;;;;;;;;;5056126;28;20217;-64
2023/07/25 05:44:43;;;;;;;10.50;4.00;;;;;;;;;;5056120;28;20588;-64
2023/07/25 05:47:09;;;;;;;9.80;3.30;;;;;;;;;;5038419;28;20214;-64
2023/07/25 05:49:35;;;;;;;6.10;3.10;;;;;;;;;;5038254;28;20232;-64
2023/07/25 05:52:01;;;;;;;6.63;3.30;;;;;;;;;;5056033;28;20555;-64
2023/07/25 05:54:28;;;;;;;10.17;3.57;;;;;;;;;;5038816;28;20189;-64
2023/07/25 05:56:54;;;;;;;12.50;3.47;;;;;;;;;;5056541;28;20178;-64
2023/07/25 05:59:20;;;;;;;7.57;3.60;;;;;;;;;;5056024;28;20174;-64
2023/07/25 06:01:46;;;;;;;13.27;3.40;;;;;;;;;;5055826;28;20214;-64
2023/07/25 06:04:13;;;;;;;6.97;3.37;;;;;;;;;;5055943;28;20593;-64
2023/07/25 06:06:40;;;;;;;10.13;3.63;;;;;;;;;;5056466;28;20175;-64
2023/07/25 06:09:05;;;;;;;11.30;3.40;;;;;;;;;;5057978;28;20185;-64
2023/07/25 06:11:31;;;;;;;8.73;3.30;;;;;;;;;;5056887;28;20178;-64
2023/07/25 06:13:57;;;;;;;11.97;3.47;;;;;;;;;;5056071;28;20177;-64
2023/07/25 06:16:23;;;;;;;11.07;3.50;;;;;;;;;;5055691;28;20182;-64
2023/07/25 06:18:49;;;;;;;8.70;3.03;;;;;;;;;;5038220;28;20237;-64
2023/07/25 06:21:15;;;;;;;8.70;3.07;;;;;;;;;;5055641;28;20178;-64
2023/07/25 06:23:41;;;;;;;8.47;3.17;;;;;;;;;;5055534;28;20282;-64
2023/07/25 06:26:07;;;;;;;8.37;3.13;;;;;;;;;;5055517;28;20202;-64
2023/07/25 06:28:33;;;;;;;12.20;3.60;;;;;;;;;;5037398;28;20273;-64
2023/07/25 06:30:59;;;;;;;10.50;3.23;;;;;;;;;;5037485;28;20201;-64
2023/07/25 06:33:25;;;;;;;10.37;3.60;;;;;;;;;;5055203;28;20198;-64
2023/07/25 06:35:51;;;;;;;9.90;3.33;;;;;;;;;;5055430;28;20661;-64
2023/07/25 06:38:17;;;;;;;8.33;3.03;;;;;;;;;;5037628;28;20189;-64
2023/07/25 06:40:43;;;;;;;9.20;3.47;;;;;;;;;;5055487;28;20202;-64
2023/07/25 06:43:09;;;;;;;12.43;3.07;;;;;;;;;;5054873;28;20306;-64
2023/07/25 06:45:35;;;;;;;10.00;2.70;;;;;;;;;;5055172;28;20177;-64
2023/07/25 06:48:01;;;;;;;11.07;3.17;;;;;;;;;;5037012;28;20699;-64
2023/07/25 06:50:27;;;;;;;6.73;2.47;;;;;;;;;;5055104;28;20178;-64
2023/07/25 06:52:53;;;;;;;8.03;2.80;;;;;;;;;;5054832;28;20202;-64
2023/07/25 06:55:19;;;;;;;8.77;2.90;;;;;;;;;;5054825;28;20285;-64
2023/07/25 06:57:48;;;;;;;11.80;2.90;;;;;;;;;;5037660;28;20205;-64
2023/07/25 07:00:14;;;;;;;11.30;3.07;;;;;;;;;;5055179;28;20232;-64
2023/07/25 07:02:41;;;;;;;8.50;3.13;;;;;;;;;;5054766;28;20215;-64
2023/07/25 07:05:07;;;;;;;10.90;3.00;;;;;;;;;;5036846;28;20233;-64
2023/07/25 07:07:33;;;;;;;6.80;2.87;;;;;;;;;;5055113;28;20185;-64
2023/07/25 07:09:59;;;;;;;9.73;2.60;;;;;;;;;;5054615;28;20201;-64
2023/07/25 07:12:25;;;;;;;7.40;2.70;;;;;;;;;;5054688;28;20198;-65
2023/07/25 07:14:51;;;;;;;10.30;2.63;;;;;;;;;;5054375;28;20186;-64
2023/07/25 07:17:18;;;;;;;11.87;2.80;;;;;;;;;;5053595;28;20277;-66
2023/07/25 07:19:44;;;;;;;11.13;3.10;;;;;;;;;;5036531;28;20559;-64
2023/07/25 07:22:10;;;;;;;9.13;2.47;;;;;;;;;;5054921;28;20206;-64
2023/07/25 07:24:36;;;;;;;9.30;2.97;;;;;;;;;;5054508;28;20252;-67
2023/07/25 07:27:02;;;;;;;10.37;2.63;;;;;;;;;;5036611;28;20640;-66
2023/07/25 07:29:27;;;;;;;13.27;2.73;;;;;;;;;;5054735;28;20693;-63
2023/07/25 07:31:53;;;;;;;10.70;2.70;;;;;;;;;;5054532;28;20198;-69
2023/07/25 07:34:19;;;;;;;5.00;2.17;;;;;;;;;;5036186;28;20217;-64
2023/07/25 07:36:45;;;;;;;11.50;2.87;;;;;;;;;;5036257;28;20221;-64
2023/07/25 07:39:20;;;;;;;7.80;2.87;;;;;;;;;;5071557;28;20959;-64
2023/07/25 07:41:46;;;;;;;5.90;2.60;;;;;;;;;;5069561;28;20202;-64
2023/07/25 07:44:12;;;;;;;9.37;2.50;;;;;;;;;;5070555;28;20264;-64
2023/07/25 07:46:38;;;;;;;8.10;2.37;;;;;;;;;;5070668;28;20177;-64
2023/07/25 07:49:04;;;;;;;6.37;2.60;;;;;;;;;;5070419;28;20219;-62
2023/07/25 07:51:30;;;;;;;7.77;3.07;;;;;;;;;;5070521;28;20170;-64
2023/07/25 07:53:55;;;;;;;5.57;2.63;;;;;;;;;;5070983;28;20654;-64
2023/07/25 07:56:21;;;;;;;6.07;2.40;;;;;;;;;;5069205;28;20715;-63
2023/07/25 07:58:47;;;;;;;11.40;2.83;;;;;;;;;;5068962;28;20557;-63
2023/07/25 08:01:23;;;;;;;5.43;2.60;;;;;;;;;;5070731;28;20174;-63
2023/07/25 08:03:50;;;;;;;6.57;2.60;;;;;;;;;;5070582;28;20177;-63
2023/07/25 08:06:16;;;;;;;8.00;2.60;;;;;;;;;;5071871;28;20174;-64
2023/07/25 08:08:42;;;;;;;6.53;2.97;;;;;;;;;;5070607;28;20178;-64
2023/07/25 08:11:08;;;;;;;13.83;2.70;;;;;;;;;;5070146;28;20185;-64
2023/07/25 08:13:34;;;;;;;5.27;2.40;;;;;;;;;;5070131;28;20259;-64
2023/07/25 08:16:00;;;;;;;11.50;2.83;;;;;;;;;;5070658;28;20181;-64
2023/07/25 08:18:26;;;;;;;7.60;2.60;;;;;;;;;;5070532;28;20247;-64
2023/07/25 08:20:59;;;;;;;7.77;2.33;;;;;;;;;;5069993;28;20669;-64
2023/07/25 08:23:25;;;;;;;7.43;2.87;;;;;;;;;;5069731;28;20194;-64
2023/07/25 08:25:51;;;;;;;10.53;2.70;;;;;;;;;;5068477;28;20185;-64
2023/07/25 08:28:18;;;;;;;11.17;3.07;;;;;;;;;;5069690;28;20182;-64
2023/07/25 08:30:44;;;;;;;5.63;2.30;;;;;;;;;;5070274;28;20181;-64
2023/07/25 08:33:15;;;;;;;13.47;2.70;;;;;;;;;;5069473;28;20623;-64
2023/07/25 08:35:42;;;;;;;8.70;2.60;;;;;;;;;;5069619;28;20169;-64
2023/07/25 08:38:08;;;;;;;6.13;2.27;;;;;;;;;;5069388;28;20267;-64
2023/07/25 08:40:34;;;;;;;10.00;2.47;;;;;;;;;;5069746;28;20176;-64
2023/07/25 08:43:03;;;;;;;7.43;2.40;;;;;;;;;;5069460;28;20202;-64
2023/07/25 08:45:30;;;;;;;7.83;2.80;;;;;;;;;;5069564;28;20272;-66
2023/07/25 08:47:56;;;;;;;9.67;2.50;;;;;;;;;;5068075;28;20186;-63
2023/07/25 08:50:23;;;;;;;6.43;2.20;;;;;;;;;;5057972;28;20754;-63
2023/07/25 08:52:50;;;;;;;8.57;2.77;;;;;;;;;;5054899;28;20202;-63
2023/07/25 08:55:17;;;;;;;8.63;3.00;;;;;;;;;;5056458;28;20182;-65
2023/07/25 08:57:44;;;;;;;5.93;2.40;;;;;;;;;;5055946;28;20209;-63
2023/07/25 09:00:10;;;;;;;10.13;2.70;;;;;;;;;;5055866;28;20171;-63
2023/07/25 09:02:37;;;;;;;8.13;2.60;;;;;;;;;;5056152;28;20591;-65
2023/07/25 09:05:03;;;;;;;7.07;2.63;;;;;;;;;;5054753;28;20539;-64
2023/07/25 09:07:29;;;;;;;10.33;3.00;;;;;;;;;;5055927;28;20179;-65
2023/07/25 09:09:55;;;;;;;14.23;2.40;;;;;;;;;;5056577;28;20321;-66
2023/07/25 09:12:21;;;;;;;7.83;2.43;;;;;;;;;;5054709;28;20205;-65
2023/07/25 09:14:47;;;;;;;8.33;2.47;;;;;;;;;;5055791;28;20186;-66
2023/07/25 09:17:13;;;;;;;8.47;2.50;;;;;;;;;;5055473;28;20289;-64
2023/07/25 09:19:39;;;;;;;7.33;2.80;;;;;;;;;;5055471;28;20210;-64
2023/07/25 09:22:05;;;;;;;7.03;2.40;;;;;;;;;;5054098;28;20202;-64
2023/07/25 09:24:38;;;;;;;5.80;2.37;;;;;;;;;;5055632;28;20185;-64
2023/07/25 09:27:05;;;;;;;9.20;2.77;;;;;;;;;;5055456;28;20675;-64
2023/07/25 09:29:31;;;;;;;5.63;2.87;;;;;;;;;;5055468;28;20186;-64
2023/07/25 09:31:57;;;;;;;7.67;2.97;;;;;;;;;;5055837;28;20190;-64
2023/07/25 09:34:26;;;;;;;6.40;2.20;;;;;;;;;;5055452;28;20213;-64
2023/07/25 09:36:52;;;;;;;4.73;2.10;;;;;;;;;;5055337;28;20224;-64
2023/07/25 09:39:18;;;;;;;6.47;2.63;;;;;;;;;;5055454;28;20214;-64
2023/07/25 09:41:45;;;;;;;8.23;2.23;;;;;;;;;;5079674;22;20226;-72
2023/07/25 09:44:11;;;;;;;7.37;2.40;;;;;;;;;;5038523;28;20209;-72
2023/07/25 09:46:37;;;;;;;4.90;2.17;;;;;;;;;;5058041;28;20170;-70
2023/07/25 09:49:03;;;;;;;9.70;2.70;;;;;;;;;;5041524;28;20177;-70
2023/07/25 09:51:29;;;;;;;8.10;2.53;;;;;;;;;;5059394;28;20190;-71
2023/07/25 09:53:55;;;;;;;7.67;2.50;;;;;;;;;;5038498;28;20178;-72
2023/07/25 09:56:23;;;;;;;6.13;2.30;;;;;;;;;;5038095;28;20205;-72
2023/07/25 09:58:49;;;;;;;7.30;2.63;;;;;;;;;;5037562;28;20203;-72
2023/07/25 10:01:16;;;;;;;6.40;2.60;;;;;;;;;;5036560;28;20195;-72
2023/07/25 10:03:43;;;;;;;6.83;2.80;;;;;;;;;;5037331;28;20202;-73
2023/07/25 10:06:10;;;;;;;8.97;2.60;;;;;;;;;;5055223;28;20319;-72
2023/07/25 10:08:39;;;;;;;6.57;2.80;;;;;;;;;;5036988;28;20767;-72
2023/07/25 10:11:05;;;;;;;6.93;2.63;;;;;;;;;;5055090;28;20210;-72
2023/07/25 10:13:34;;;;;;;6.80;2.60;;;;;;;;;;5036957;28;20178;-72
2023/07/25 10:16:04;;;;;;;10.33;3.00;;;;;;;;;;5036990;28;20267;-72
2023/07/25 10:18:33;;;;;;;12.23;3.13;;;;;;;;;;5037184;28;20205;-72
2023/07/25 10:20:59;;;;;;;9.27;3.07;;;;;;;;;;5037036;28;20175;-72
2023/07/25 10:23:35;;;;;;;7.60;2.83;;;;;;;;;;5036768;28;20285;-72
2023/07/25 10:26:11;;;;;;;4.93;2.73;;;;;;;;;;5037001;28;20177;-72
2023/07/25 10:28:37;;;;;;;7.17;2.80;;;;;;;;;;5054971;28;20201;-72
2023/07/25 10:31:06;;;;;;;9.33;2.97;;;;;;;;;;5056451;28;20636;-72
2023/07/25 10:33:37;;;;;;;7.20;3.23;;;;;;;;;;5036922;28;20217;-72
2023/07/25 10:36:03;;;;;;;10.30;3.33;;;;;;;;;;5036781;28;20175;-71
2023/07/25 10:38:32;;;;;;;13.77;3.40;;;;;;;;;;5036740;28;20218;-69
2023/07/25 10:40:58;;;;;;;7.03;2.90;;;;;;;;;;5053969;28;20184;-69
2023/07/25 10:43:55;;;;;;;6.57;2.87;;;;;;;;;;5054261;28;20249;-72
2023/07/25 10:46:26;;;;;;;10.83;3.43;;;;;;;;;;5054558;28;20561;-71
2023/07/25 10:48:56;;;;;;;7.83;3.10;;;;;;;;;;5054867;28;20641;-71
2023/07/25 10:51:23;;;;;;;10.13;3.80;;;;;;;;;;5054908;28;20202;-71
2023/07/25 10:54:18;;;;;;;8.07;4.00;;;;;;;;;;5054473;28;20655;-71
2023/07/25 10:57:04;;;;;;;8.37;3.13;;;;;;;;;;5034733;28;20202;-71
2023/07/25 10:59:30;;;;;;;6.43;3.43;;;;;;;;;;5054019;28;20179;-70
2023/07/25 11:01:57;;;;;;;10.63;4.30;;;;;;;;;;5054391;28;20195;-70
2023/07/25 11:04:23;;;;;;;10.50;3.10;;;;;;;;;;5055072;28;20660;-70
2023/07/25 11:06:49;;;;;;;16.87;3.87;;;;;;;;;;5037149;28;20219;-70
2023/07/25 11:09:15;;;;;;;9.47;3.17;;;;;;;;;;5055832;28;20217;-69
2023/07/25 11:11:45;;;;;;;10.67;3.67;;;;;;;;;;5036485;28;20675;-71
2023/07/25 11:14:15;;;;;;;11.23;3.90;;;;;;;;;;5054094;28;20186;-71
2023/07/25 11:16:42;;;;;;;14.73;2.97;;;;;;;;;;5054274;28;20636;-71
2023/07/25 11:19:09;;;;;;;5.53;2.37;;;;;;;;;;5035755;28;20316;-71
2023/07/25 11:21:39;;;;;;;8.57;2.90;;;;;;;;;;5036296;28;20272;-71
2023/07/25 11:24:06;;;;;;;11.73;2.60;;;;;;;;;;5055170;28;20598;-71
2023/07/25 11:26:32;;;;;;;14.40;3.13;;;;;;;;;;5039506;28;20182;-71
2023/07/25 11:29:05;;;;;;;5.93;3.07;;;;;;;;;;5054158;28;20270;-71
2023/07/25 11:31:31;;;;;;;7.60;2.50;;;;;;;;;;5035811;28;20212;-71
2023/07/25 11:33:57;;;;;;;4.50;2.20;;;;;;;;;;5053676;28;20221;-71
2023/07/25 11:36:23;;;;;;;5.00;2.07;;;;;;;;;;5035341;28;20182;-71
2023/07/25 11:38:49;;;;;;;4.97;2.10;;;;;;;;;;5035262;28;20202;-71
2023/07/25 11:41:16;;;;;;;6.93;2.43;;;;;;;;;;5035145;28;20728;-71
2023/07/25 11:43:42;;;;;;;7.60;2.23;;;;;;;;;;5035328;28;20174;-71
2023/07/25 11:46:10;;;;;;;4.77;2.07;;;;;;;;;;5035223;28;20174;-71
2023/07/25 11:48:36;;;;;;;5.33;1.80;;;;;;;;;;5053185;28;20204;-71
2023/07/25 11:51:02;;;;;;;4.43;1.80;;;;;;;;;;5052962;28;20179;-71
2023/07/25 11:53:29;;;;;;;5.10;1.70;;;;;;;;;;5035352;28;20281;-71
2023/07/25 11:55:55;;;;;;;5.50;1.90;;;;;;;;;;5035210;28;20648;-71
2023/07/25 11:58:22;;;;;;;5.27;1.83;;;;;;;;;;5035410;28;20210;-71
2023/07/25 12:00:52;;;;;;;5.27;2.03;;;;;;;;;;5053113;28;20554;-71
2023/07/25 12:03:21;;;;;;;5.00;1.63;;;;;;;;;;5053083;28;20228;-71
2023/07/25 12:05:53;;;;;;;4.13;1.80;;;;;;;;;;5053034;28;20203;-71
2023/07/25 12:08:32;;;;;;;7.43;2.00;;;;;;;;;;5053508;28;20588;-72
2023/07/25 12:11:02;;;;;;;4.57;1.80;;;;;;;;;;5054094;28;20231;-71
2023/07/25 12:13:28;;;;;;;3.93;1.83;;;;;;;;;;5054088;28;20178;-72
2023/07/25 12:15:56;;;;;;;4.67;1.70;;;;;;;;;;5036394;28;20189;-70
2023/07/25 12:18:29;;;;;;;3.63;1.63;;;;;;;;;;5057333;28;20289;-70
2023/07/25 12:20:55;;;;;;;4.70;1.97;;;;;;;;;;5054037;28;20181;-70
2023/07/25 12:23:29;;;;;;;8.03;2.27;;;;;;;;;;5035520;28;20236;-70
2023/07/25 12:25:56;;;;;;;5.07;1.70;;;;;;;;;;5038298;28;20175;-70
2023/07/25 12:28:22;;;;;;;4.83;1.67;;;;;;;;;;5038534;28;20560;-70
2023/07/25 12:30:48;;;;;;;8.40;1.83;;;;;;;;;;5056918;28;20182;-69
2023/07/25 12:33:14;;;;;;;4.80;1.70;;;;;;;;;;5056763;28;20596;-70
2023/07/25 12:35:40;;;;;;;7.43;2.23;;;;;;;;;;5056383;28;20191;-69
2023/07/25 12:38:06;;;;;;;6.73;2.37;;;;;;;;;;5038453;28;20340;-70
2023/07/25 12:40:32;;;;;;;11.13;2.50;;;;;;;;;;5038351;28;20238;-71
2023/07/25 12:42:58;;;;;;;4.57;1.97;;;;;;;;;;5038437;28;20245;-71
2023/07/25 12:45:24;;;;;;;5.50;2.00;;;;;;;;;;5038378;28;20228;-71
2023/07/25 12:47:50;;;;;;;4.63;2.20;;;;;;;;;;5056195;28;20178;-71
2023/07/25 12:50:16;;;;;;;2.93;1.80;;;;;;;;;;5056026;28;20182;-71
2023/07/25 12:52:42;;;;;;;5.57;1.77;;;;;;;;;;5038296;28;20245;-71
2023/07/25 12:55:08;;;;;;;5.90;2.03;;;;;;;;;;5038163;28;20212;-71
2023/07/25 12:57:34;;;;;;;6.73;2.03;;;;;;;;;;5055853;28;20301;-71
2023/07/25 13:00:01;;;;;;;6.77;2.07;;;;;;;;;;5055858;28;20597;-71
2023/07/25 13:02:27;;;;;;;3.67;1.97;;;;;;;;;;5037896;28;20316;-71
2023/07/25 13:04:53;;;;;;;13.10;6.13;;;;;;;;;;5055830;28;20179;-71
2023/07/25 13:07:19;;;;;;;6.50;3.40;;;;;;;;;;5038781;28;20178;-71
2023/07/25 13:09:45;;;;;;;2.17;1.60;;;;;;;;;;5037907;28;20557;-71
2023/07/25 13:12:11;;;;;;;4.13;1.97;;;;;;;;;;5038417;28;20549;-71
2023/07/25 13:14:37;;;;;;;3.10;1.70;;;;;;;;;;5038900;28;20671;-71
2023/07/25 13:17:03;;;;;;;4.20;1.93;;;;;;;;;;5037717;28;20189;-72
2023/07/25 13:19:29;;;;;;;4.67;2.13;;;;;;;;;;5037619;28;20186;-71
2023/07/25 13:21:55;;;;;;;5.83;3.47;;;;;;;;;;5055486;28;20198;-71
2023/07/25 13:24:21;;;;;;;2.73;1.63;;;;;;;;;;5037521;28;20185;-71
2023/07/25 13:26:47;;;;;;;3.77;1.50;;;;;;;;;;5037540;28;20217;-71
2023/07/25 13:29:13;;;;;;;2.73;1.97;;;;;;;;;;5055238;28;20553;-71
2023/07/25 13:31:40;;;;;;;2.83;1.50;;;;;;;;;;5037369;28;20675;-71
2023/07/25 13:34:06;;;;;;;4.20;1.77;;;;;;;;;;5037262;28;20189;-71
2023/07/25 13:36:32;;;;;;;4.97;1.80;;;;;;;;;;5055154;28;20178;-71
2023/07/25 13:38:58;;;;;;;4.93;1.70;;;;;;;;;;5036939;28;20214;-71
2023/07/25 13:41:24;;;;;;;7.60;2.07;;;;;;;;;;5037029;28;20210;-71
2023/07/25 13:43:50;;;;;;;3.90;1.40;;;;;;;;;;5055022;28;20647;-71
2023/07/25 13:46:16;;;;;;;3.10;1.50;;;;;;;;;;5037057;28;20261;-71
2023/07/25 13:48:42;;;;;;;3.63;1.30;;;;;;;;;;5036950;28;20182;-71
2023/07/25 13:51:07;;;;;;;1.63;1.30;;;;;;;;;;5054884;28;20209;-71
2023/07/25 13:53:35;;;;;;;3.87;1.40;;;;;;;;;;5054991;28;20228;-71
2023/07/25 13:56:01;;;;;;;5.50;1.73;;;;;;;;;;5054851;28;20175;-71
2023/07/25 13:58:26;;;;;;;5.73;1.60;;;;;;;;;;5037529;28;20213;-71
2023/07/25 14:00:52;;;;;;;4.87;1.77;;;;;;;;;;5054536;28;20547;-71
2023/07/25 14:03:19;;;;;;;4.07;1.77;;;;;;;;;;5036874;28;20632;-71
2023/07/25 14:05:45;;;;;;;2.70;1.43;;;;;;;;;;5036783;28;20178;-71
2023/07/25 14:08:11;;;;;;;2.57;1.37;;;;;;;;;;5056314;28;20694;-71
2023/07/25 14:10:37;;;;;;;3.30;1.60;;;;;;;;;;5037296;28;20220;-72
2023/07/25 14:13:03;;;;;;;5.20;1.70;;;;;;;;;;5036887;28;20739;-71
2023/07/25 14:15:30;;;;;;;4.90;1.50;;;;;;;;;;5037271;28;20225;-71
2023/07/25 14:18:14;;;;;;;3.47;1.33;;;;;;;;;;5058011;28;20202;-70
2023/07/25 14:20:40;;;;;;;4.10;1.40;;;;;;;;;;5054694;28;20167;-70
2023/07/25 14:23:06;;;;;;;5.37;1.80;;;;;;;;;;5037158;28;20195;-70
2023/07/25 14:25:32;;;;;;;1.97;1.53;;;;;;;;;;5055543;28;20174;-70
2023/07/25 14:27:58;;;;;;;3.27;1.40;;;;;;;;;;5054581;28;20183;-71
2023/07/25 14:30:24;;;;;;;2.80;1.47;;;;;;;;;;5036516;28;20205;-71
2023/07/25 14:32:50;;;;;;;4.87;1.77;;;;;;;;;;5036424;28;20655;-71
2023/07/25 14:35:16;;;;;;;2.87;1.70;;;;;;;;;;5036752;28;20186;-71